Flight Track Log - Related Links

Times and Time Zones

All times are in EDT time to prevent confusion due to time zone crossing. See the SWA315 flight status page for this flight to view local times or setup timezone preferences in your user account.

Time Position Orientation Groundspeed Altitude Reporting Facility
EDT Latitude Longitude Course Direction KTS MPH feet Rate Location/Type
Sun 01:11:42 PM 39.8903 -104.6928 42° Northeast 230 265 8,000  Level Denver Center
Sun 01:12:44 PM 39.9497 -104.6225 42° Northeast 282 325 10,000 1,429 Climbing Denver Center
Sun 01:13:06 PM 39.9833 -104.5833 42° Northeast 319 367 10,000 1,561 Level Denver TRACON
Sun 01:14:47 PM 40.0619 -104.4342 55° Northeast 332 382 13,200 2,061 Climbing Denver Center
Sun 01:15:49 PM 40.0789 -104.3081 80° East 362 417 15,600 2,710 Climbing Denver Center
Sun 01:16:51 PM 40.0325 -104.1706 114° Southeast 419 482 18,800 3,000 Climbing Denver Center
Sun 01:17:53 PM 39.9797 -104.0147 114° Southeast 436 502 21,800 2,661 Climbing Denver Center
Sun 01:18:55 PM 39.9297 -103.8672 114° Southeast 452 520 24,300 2,177 Climbing Denver Center
Sun 01:19:57 PM 39.9231 -103.6950 93° East 469 540 26,300 1,984 Climbing Denver Center
Sun 01:20:59 PM 39.9350 -103.5092 85° East 502 578 28,400 1,765 Climbing Denver Center
Sun 01:22:13 PM 39.9442 -103.3183 86° East 520 598 30,300 1,765 Climbing Denver Center
Sun 01:23:15 PM 39.9564 -103.0553 86° East 541 623 32,400 2,032 Climbing Denver Center
Sun 01:24:17 PM 39.9661 -102.8564 86° East 544 626 34,500 1,984 Climbing Denver Center
Sun 01:25:19 PM 39.9750 -102.6672 86° East 539 620 36,500 2,032 Climbing Denver Center
Sun 01:26:21 PM 39.9842 -102.4592 87° East 516 594 38,700 1,220 Climbing Denver Center
Sun 01:27:22 PM 39.9914 -102.2847 87° East 505 581 39,000 146 Climbing Denver Center
Sun 01:28:24 PM 39.9997 -102.0811 87° East 503 579 39,000  Level Denver Center
Sun 01:29:26 PM 40.0064 -101.9058 87° East 506 582 39,000  Level Denver Center
Sun 01:30:28 PM 40.0156 -101.7022 87° East 506 582 39,000  Level Denver Center
Sun 01:31:30 PM 40.0214 -101.5306 87° East 499 574 39,000  Level Denver Center
Sun 01:32:31 PM 40.0267 -101.3575 88° East 499 574 39,000  Level Denver Center
Sun 01:33:33 PM 40.0333 -101.1558 87° East 501 577 39,000  Level Denver Center
Sun 01:34:35 PM 40.0392 -100.9850 87° East 496 571 39,000  Level Denver Center
Sun 01:35:37 PM 40.0456 -100.7881 88° East 491 565 39,000  Level Denver Center
Sun 01:36:39 PM 40.0500 -100.6200 88° East 489 563 39,000  Level Denver Center
Sun 01:37:41 PM 40.0550 -100.4219 88° East 490 564 39,000  Level Denver Center
Sun 01:38:42 PM 40.0597 -100.2508 88° East 495 570 39,000  Level Denver Center
Sun 01:39:44 PM 40.0642 -100.0514 88° East 496 571 39,000  Level Denver Center
Sun 01:40:46 PM 40.0689 -99.8589 88° East 496 571 39,000  Level Denver Center
Sun 01:41:48 PM 40.0728 -99.6792 88° East 496 571 39,000  Level Denver Center
Sun 01:42:50 PM 40.0767 -99.4994 88° East 496 571 39,000  Level Denver Center
Sun 01:43:52 PM 40.0797 -99.3200 89° East 495 570 39,000  Level Denver Center
Sun 01:44:53 PM 40.0828 -99.1394 89° East 498 573 39,000  Level Denver Center
Sun 01:45:55 PM 40.0853 -98.9592 89° East 499 574 39,000  Level Denver Center
Sun 01:46:30 PM 40.0861 -98.8528 89° East 498 573 39,000  Level Minneapolis Center
Sun 01:47:44 PM 40.0883 -98.6717 89° East 499 574 39,000  Level Minneapolis Center
Sun 01:48:46 PM 40.0903 -98.4183 89° East 500 575 39,000  Level Minneapolis Center
Sun 01:49:47 PM 40.0925 -98.2353 89° East 503 579 39,000  Level Minneapolis Center
Sun 01:50:49 PM 40.0931 -98.0514 90° East 506 582 39,000  Level Minneapolis Center
Sun 01:51:51 PM 40.0939 -97.8686 90° East 506 582 39,000  Level Minneapolis Center
Sun 01:52:52 PM 40.0950 -97.6861 89° East 504 580 39,000  Level Minneapolis Center
Sun 01:53:54 PM 40.0956 -97.5053 90° East 501 577 39,000  Level Minneapolis Center
Sun 01:54:55 PM 40.0944 -97.3161 90° East 498 573 39,000  Level Minneapolis Center
Sun 01:55:57 PM 40.0956 -97.1367 89° East 495 570 39,000  Level Minneapolis Center
Sun 01:56:58 PM 40.0944 -96.9569 90° East 497 572 39,000  Level Minneapolis Center
Sun 01:58:00 PM 40.0936 -96.7772 90° East 497 572 39,000  Level Minneapolis Center
Sun 01:59:02 PM 40.0928 -96.5608 90° East 498 573 39,000  Level Minneapolis Center
Sun 02:00:03 PM 40.0911 -96.3811 91° East 498 573 39,000  Level Minneapolis Center
Sun 02:01:05 PM 40.0889 -96.2017 91° East 498 573 39,000  Level Minneapolis Center
Sun 02:02:06 PM 40.0881 -96.0214 90° East 498 573 39,000  Level Minneapolis Center
Sun 02:03:08 PM 40.0858 -95.8367 91° East 507 583 39,000  Level Minneapolis Center
Sun 02:04:09 PM 40.0831 -95.6550 91° East 506 582 39,000  Level Minneapolis Center
Sun 02:05:11 PM 40.0814 -95.5103 91° East 502 578 39,000  Level Minneapolis Center
Sun 02:06:06 PM 40.0767 -95.3083 92° East 501 577 39,000  Level Kansas City Center
Sun 02:07:09 PM 40.0725 -95.1044 91° East 501 577 39,000  Level Kansas City Center
Sun 02:08:12 PM 40.0694 -94.9308 91° East 502 578 39,000  Level Kansas City Center
Sun 02:09:13 PM 40.0653 -94.7289 91° East 498 573 39,000  Level Kansas City Center
Sun 02:10:16 PM 40.0619 -94.5589 91° East 492 566 39,000  Level Kansas City Center
Sun 02:11:18 PM 40.0572 -94.3589 92° East 493 567 39,000  Level Kansas City Center
Sun 02:12:19 PM 40.0531 -94.1889 92° East 490 564 39,000  Level Kansas City Center
Sun 02:13:22 PM 40.0469 -94.0211 93° East 494 568 39,000  Level Kansas City Center
Sun 02:14:23 PM 40.0386 -93.8100 93° East 492 566 39,000  Level Kansas City Center
Sun 02:15:24 PM 40.0333 -93.6394 92° East 483 556 39,000  Level Kansas City Center
Sun 02:16:25 PM 40.0272 -93.4703 93° East 474 545 39,000  Level Kansas City Center
Sun 02:17:29 PM 40.0225 -93.2994 92° East 474 545 39,000  Level Kansas City Center
Sun 02:18:32 PM 40.0175 -93.1342 92° East 466 536 39,000  Level Kansas City Center
Sun 02:19:34 PM 40.0097 -92.9342 93° East 466 536 39,000  Level Kansas City Center
Sun 02:20:34 PM 40.0033 -92.7669 93° East 468 539 39,000  Level Kansas City Center
Sun 02:21:36 PM 39.9978 -92.6008 92° East 469 540 39,000  Level Kansas City Center
Sun 02:22:40 PM 39.9903 -92.4367 93° East 467 537 39,000  Level Kansas City Center
Sun 02:23:40 PM 39.9817 -92.2386 93° East 465 535 39,000  Level Kansas City Center
Sun 02:24:44 PM 39.9742 -92.0719 93° East 467 537 39,000  Level Kansas City Center
Sun 02:25:44 PM 39.9664 -91.9086 94° East 460 529 39,000  Level Kansas City Center
Sun 02:26:47 PM 39.9578 -91.7472 94° East 453 521 39,000  Level Kansas City Center
Sun 02:27:48 PM 39.9489 -91.5536 93° East 452 520 39,000  Level Kansas City Center
Sun 02:28:51 PM 39.9403 -91.3908 94° East 455 524 39,000  Level Kansas City Center
Sun 02:29:53 PM 39.9308 -91.2269 94° East 456 525 39,000  Level Kansas City Center
Sun 02:30:54 PM 39.9239 -91.0619 93° East 458 527 39,000  Level Kansas City Center
Sun 02:31:58 PM 39.9142 -90.8947 94° East 459 528 39,000  Level Kansas City Center
Sun 02:32:59 PM 39.9047 -90.7281 94° East 461 531 39,000 -50 Level Kansas City Center
Sun 02:33:59 PM 39.8931 -90.5286 94° East 463 533 38,900 -581 Descending Kansas City Center
Sun 02:35:03 PM 39.8831 -90.3611 94° East 465 535 37,800 -1,008 Descending Kansas City Center
Sun 02:36:04 PM 39.8725 -90.1917 95° East 469 540 36,800 -1,033 Descending Kansas City Center
Sun 02:37:05 PM 39.8611 -90.0200 95° East 475 547 35,700 -864 Descending Kansas City Center
Sun 02:38:09 PM 39.8506 -89.8486 95° East 477 549 35,000 -384 Descending Kansas City Center
Sun 02:39:10 PM 39.8400 -89.6839 95° East 469 540 34,900 -738 Descending Kansas City Center
Sun 02:40:11 PM 39.8400 -89.4869 90° East 459 528 33,500 -1,584 Descending Kansas City Center
Sun 02:41:15 PM 39.8414 -89.3233 89° East 457 526 31,600 -1,248 Descending Kansas City Center
Sun 02:42:16 PM 39.8422 -89.1650 90° East 447 514 30,900 -744 Descending Kansas City Center
Sun 02:43:16 PM 39.8419 -89.0114 90° East 434 499 30,100 -787 Descending Kansas City Center
Sun 02:44:18 PM 39.8422 -88.8575 90° East 429 494 29,300 -714 Descending Kansas City Center
Sun 02:45:22 PM 39.8414 -88.7036 90° East 427 491 28,600 -864 Descending Kansas City Center
Sun 02:46:23 PM 39.8417 -88.5236 90° East 420 483 27,500 -1,230 Descending Kansas City Center
Sun 02:47:24 PM 39.8422 -88.3719 90° East 419 482 26,100 -1,645 Descending Kansas City Center
Sun 02:48:27 PM 39.8422 -88.2217 90° East 418 481 24,100 -984 Descending Kansas City Center
Sun 02:49:32 PM 39.8408 -88.0736 91° East 412 474 24,000 -47 Descending Indianapolis Center
Sun 02:50:34 PM 39.8389 -87.9025 91° East 403 464 24,000 -823 Level Indianapolis Center
Sun 02:51:36 PM 39.8378 -87.7600 91° East 399 459 22,300 -1,742 Descending Indianapolis Center
Sun 02:52:38 PM 39.8367 -87.6239 91° East 391 450 20,400 -1,790 Descending Indianapolis Center
Sun 02:53:40 PM 39.8347 -87.4894 91° East 382 440 18,600 -1,790 Descending Indianapolis Center
Sun 02:54:42 PM 39.8325 -87.3594 91° East 374 430 16,700 -1,790 Descending Indianapolis Center
Sun 02:55:44 PM 39.8306 -87.2336 91° East 364 419 14,900 -1,742 Descending Indianapolis Center
Sun 02:56:46 PM 39.8283 -87.1089 91° East 356 410 13,100 -1,452 Descending Indianapolis Center
Sun 02:57:48 PM 39.8256 -86.9878 92° East 347 399 11,900 -484 Descending Indianapolis Center
Sun 02:58:50 PM 39.8236 -86.8442 91° East 339 390 12,100 -145 Climbing Indianapolis Center
Sun 02:59:52 PM 39.8214 -86.7228 91° East 335 386 11,600 -1,016 Descending Indianapolis Center
Sun 03:00:54 PM 39.8186 -86.6089 92° East 330 380 10,000 -1,452 Descending Indianapolis Center
Sun 03:01:56 PM 39.8169 -86.4986 91° East 321 369 8,600 -1,161 Descending Indianapolis Center
Sun 03:02:58 PM 39.8131 -86.3942 93° East 309 356 7,600 -1,043 Descending Indianapolis Center
Sun 03:03:51 PM 39.8333 -86.3167 71° East 256 295 6,600 -1,611 Descending Indianapolis TRACON
Sun 03:04:46 PM 39.8500 -86.2333 75° East 254 292 4,700 -1,878 Descending Indianapolis TRACON
Sun 03:05:46 PM 39.8167 -86.2167 159° South 184 212 3,000 -1,333 Descending Indianapolis TRACON
Sun 03:06:52 PM 39.7667 -86.2500 207° Southwest 148 170 1,900 -905 Descending Indianapolis TRACON
Sun 03:07:52 PM 39.7333 -86.2833 218° Southwest 132 152 1,100 -800 Descending Indianapolis TRACON
Sun 03:09:00 PM 39.7167 -86.2833 207° Southwest  Level FlightAware Approximate
Sun 03:16:00 PM 39.7173 -86.2947 207° Southwest  Level Estimated

Login

Don't have an account? Register now (free) for customized features, flight alerts, and more!